sensor_id;sensor_type;location;lat;lon;timestamp;P1;durP1;ratioP1;P2;durP2;ratioP2
7583;SDS011;3833;41.764;26.204;2023-07-24T00:00:33;6.30;;;4.90;;
7583;SDS011;3833;41.764;26.204;2023-07-24T00:03:00;7.10;;;5.57;;
7583;SDS011;3833;41.764;26.204;2023-07-24T00:05:27;6.20;;;5.60;;
7583;SDS011;3833;41.764;26.204;2023-07-24T00:07:54;5.90;;;5.30;;
7583;SDS011;3833;41.764;26.204;2023-07-24T00:10:21;6.40;;;5.70;;
7583;SDS011;3833;41.764;26.204;2023-07-24T00:12:47;6.77;;;6.10;;
7583;SDS011;3833;41.764;26.204;2023-07-24T00:15:16;6.37;;;5.17;;
7583;SDS011;3833;41.764;26.204;2023-07-24T00:17:43;6.10;;;5.43;;
7583;SDS011;3833;41.764;26.204;2023-07-24T00:20:10;5.70;;;4.90;;
7583;SDS011;3833;41.764;26.204;2023-07-24T00:22:36;5.57;;;5.07;;
7583;SDS011;3833;41.764;26.204;2023-07-24T00:25:03;5.77;;;4.93;;
7583;SDS011;3833;41.764;26.204;2023-07-24T00:27:31;7.73;;;5.20;;
7583;SDS011;3833;41.764;26.204;2023-07-24T00:29:58;9.57;;;5.50;;
7583;SDS011;3833;41.764;26.204;2023-07-24T00:32:26;7.07;;;5.30;;
7583;SDS011;3833;41.764;26.204;2023-07-24T00:34:53;5.43;;;4.93;;
7583;SDS011;3833;41.764;26.204;2023-07-24T00:37:19;5.87;;;5.27;;
7583;SDS011;3833;41.764;26.204;2023-07-24T00:39:46;6.10;;;5.50;;
7583;SDS011;3833;41.764;26.204;2023-07-24T00:42:13;5.90;;;4.73;;
7583;SDS011;3833;41.764;26.204;2023-07-24T00:44:40;6.43;;;5.77;;
7583;SDS011;3833;41.764;26.204;2023-07-24T00:47:07;5.50;;;5.00;;
7583;SDS011;3833;41.764;26.204;2023-07-24T00:49:35;6.97;;;5.27;;
7583;SDS011;3833;41.764;26.204;2023-07-24T00:52:02;6.27;;;4.67;;
7583;SDS011;3833;41.764;26.204;2023-07-24T00:54:30;7.07;;;5.43;;
7583;SDS011;3833;41.764;26.204;2023-07-24T00:56:57;8.67;;;5.73;;
7583;SDS011;3833;41.764;26.204;2023-07-24T00:59:24;6.33;;;4.97;;
7583;SDS011;3833;41.764;26.204;2023-07-24T01:01:51;5.87;;;5.20;;
7583;SDS011;3833;41.764;26.204;2023-07-24T01:04:18;6.80;;;5.67;;
7583;SDS011;3833;41.764;26.204;2023-07-24T01:06:46;8.40;;;5.60;;
7583;SDS011;3833;41.764;26.204;2023-07-24T01:09:13;7.23;;;5.73;;
7583;SDS011;3833;41.764;26.204;2023-07-24T01:11:41;6.13;;;5.53;;
7583;SDS011;3833;41.764;26.204;2023-07-24T01:14:12;6.30;;;5.17;;
7583;SDS011;3833;41.764;26.204;2023-07-24T01:16:42;7.70;;;6.00;;
7583;SDS011;3833;41.764;26.204;2023-07-24T01:19:11;6.93;;;5.63;;
7583;SDS011;3833;41.764;26.204;2023-07-24T01:22:01;6.53;;;5.93;;
7583;SDS011;3833;41.764;26.204;2023-07-24T01:24:37;6.97;;;6.17;;
7583;SDS011;3833;41.764;26.204;2023-07-24T01:27:20;6.23;;;5.63;;
7583;SDS011;3833;41.764;26.204;2023-07-24T01:29:47;8.93;;;5.63;;
7583;SDS011;3833;41.764;26.204;2023-07-24T01:32:14;7.30;;;5.63;;
7583;SDS011;3833;41.764;26.204;2023-07-24T01:34:40;9.13;;;6.37;;
7583;SDS011;3833;41.764;26.204;2023-07-24T01:37:07;5.87;;;5.17;;
7583;SDS011;3833;41.764;26.204;2023-07-24T01:39:36;6.23;;;5.60;;
7583;SDS011;3833;41.764;26.204;2023-07-24T01:42:03;7.17;;;5.90;;
7583;SDS011;3833;41.764;26.204;2023-07-24T01:44:32;8.37;;;5.83;;
7583;SDS011;3833;41.764;26.204;2023-07-24T01:46:59;8.37;;;5.73;;
7583;SDS011;3833;41.764;26.204;2023-07-24T01:49:25;10.33;;;6.33;;
7583;SDS011;3833;41.764;26.204;2023-07-24T01:51:52;7.17;;;5.80;;
7583;SDS011;3833;41.764;26.204;2023-07-24T01:54:19;8.43;;;6.30;;
7583;SDS011;3833;41.764;26.204;2023-07-24T01:56:46;7.87;;;6.43;;
7583;SDS011;3833;41.764;26.204;2023-07-24T01:59:13;6.47;;;5.77;;
7583;SDS011;3833;41.764;26.204;2023-07-24T02:01:41;7.60;;;6.10;;
7583;SDS011;3833;41.764;26.204;2023-07-24T02:04:08;8.43;;;6.03;;
7583;SDS011;3833;41.764;26.204;2023-07-24T02:06:34;6.67;;;5.97;;
7583;SDS011;3833;41.764;26.204;2023-07-24T02:09:01;7.40;;;5.97;;
7583;SDS011;3833;41.764;26.204;2023-07-24T02:11:28;6.07;;;5.57;;
7583;SDS011;3833;41.764;26.204;2023-07-24T02:13:55;8.47;;;6.00;;
7583;SDS011;3833;41.764;26.204;2023-07-24T02:16:22;6.13;;;5.53;;
7583;SDS011;3833;41.764;26.204;2023-07-24T02:18:50;6.77;;;6.07;;
7583;SDS011;3833;41.764;26.204;2023-07-24T02:21:17;6.03;;;5.43;;
7583;SDS011;3833;41.764;26.204;2023-07-24T02:23:43;5.90;;;5.30;;
7583;SDS011;3833;41.764;26.204;2023-07-24T02:26:10;6.50;;;5.43;;
7583;SDS011;3833;41.764;26.204;2023-07-24T02:28:37;7.47;;;5.70;;
7583;SDS011;3833;41.764;26.204;2023-07-24T02:31:04;8.87;;;5.73;;
7583;SDS011;3833;41.764;26.204;2023-07-24T02:33:31;7.33;;;5.73;;
7583;SDS011;3833;41.764;26.204;2023-07-24T02:36:00;6.77;;;5.67;;
7583;SDS011;3833;41.764;26.204;2023-07-24T02:38:27;6.23;;;5.53;;
7583;SDS011;3833;41.764;26.204;2023-07-24T02:40:54;6.53;;;5.20;;
7583;SDS011;3833;41.764;26.204;2023-07-24T02:43:21;9.30;;;6.00;;
7583;SDS011;3833;41.764;26.204;2023-07-24T02:45:47;7.33;;;6.07;;
7583;SDS011;3833;41.764;26.204;2023-07-24T02:48:14;6.60;;;5.67;;
7583;SDS011;3833;41.764;26.204;2023-07-24T02:50:41;6.27;;;5.67;;
7583;SDS011;3833;41.764;26.204;2023-07-24T02:53:09;7.23;;;6.03;;
7583;SDS011;3833;41.764;26.204;2023-07-24T02:55:36;6.13;;;5.53;;
7583;SDS011;3833;41.764;26.204;2023-07-24T02:58:03;6.27;;;5.60;;
7583;SDS011;3833;41.764;26.204;2023-07-24T03:00:31;6.30;;;5.70;;
7583;SDS011;3833;41.764;26.204;2023-07-24T03:02:58;8.20;;;6.27;;
7583;SDS011;3833;41.764;26.204;2023-07-24T03:05:24;7.27;;;5.47;;
7583;SDS011;3833;41.764;26.204;2023-07-24T03:07:51;6.43;;;5.40;;
7583;SDS011;3833;41.764;26.204;2023-07-24T03:10:19;7.80;;;5.67;;
7583;SDS011;3833;41.764;26.204;2023-07-24T03:12:46;6.13;;;5.43;;
7583;SDS011;3833;41.764;26.204;2023-07-24T03:15:13;6.80;;;6.10;;
7583;SDS011;3833;41.764;26.204;2023-07-24T03:17:40;9.07;;;6.00;;
7583;SDS011;3833;41.764;26.204;2023-07-24T03:20:12;9.40;;;5.93;;
7583;SDS011;3833;41.764;26.204;2023-07-24T03:22:41;6.63;;;5.53;;
7583;SDS011;3833;41.764;26.204;2023-07-24T03:25:08;6.23;;;5.63;;
7583;SDS011;3833;41.764;26.204;2023-07-24T03:27:36;6.50;;;5.83;;
7583;SDS011;3833;41.764;26.204;2023-07-24T03:30:03;8.03;;;5.60;;
7583;SDS011;3833;41.764;26.204;2023-07-24T03:32:31;6.47;;;5.70;;
7583;SDS011;3833;41.764;26.204;2023-07-24T03:34:58;6.00;;;5.40;;
7583;SDS011;3833;41.764;26.204;2023-07-24T03:37:25;7.30;;;5.27;;
7583;SDS011;3833;41.764;26.204;2023-07-24T03:39:51;7.43;;;6.67;;
7583;SDS011;3833;41.764;26.204;2023-07-24T03:42:25;6.47;;;5.63;;
7583;SDS011;3833;41.764;26.204;2023-07-24T03:44:54;6.43;;;5.13;;
7583;SDS011;3833;41.764;26.204;2023-07-24T03:47:21;7.20;;;6.50;;
7583;SDS011;3833;41.764;26.204;2023-07-24T03:49:48;7.60;;;5.90;;
7583;SDS011;3833;41.764;26.204;2023-07-24T03:52:15;7.53;;;6.20;;
7583;SDS011;3833;41.764;26.204;2023-07-24T03:54:42;7.33;;;5.87;;
7583;SDS011;3833;41.764;26.204;2023-07-24T03:57:09;8.23;;;5.83;;
7583;SDS011;3833;41.764;26.204;2023-07-24T03:59:36;6.50;;;5.90;;
7583;SDS011;3833;41.764;26.204;2023-07-24T04:02:04;8.43;;;7.40;;
7583;SDS011;3833;41.764;26.204;2023-07-24T04:04:31;10.17;;;7.63;;
7583;SDS011;3833;41.764;26.204;2023-07-24T04:06:59;8.87;;;8.00;;
7583;SDS011;3833;41.764;26.204;2023-07-24T04:09:26;10.00;;;7.93;;
7583;SDS011;3833;41.764;26.204;2023-07-24T04:11:53;10.03;;;8.67;;
7583;SDS011;3833;41.764;26.204;2023-07-24T04:14:19;10.47;;;9.20;;
7583;SDS011;3833;41.764;26.204;2023-07-24T04:16:46;10.73;;;8.57;;
7583;SDS011;3833;41.764;26.204;2023-07-24T04:19:14;9.80;;;8.80;;
7583;SDS011;3833;41.764;26.204;2023-07-24T04:21:41;11.97;;;9.70;;
7583;SDS011;3833;41.764;26.204;2023-07-24T04:24:08;10.23;;;8.90;;
7583;SDS011;3833;41.764;26.204;2023-07-24T04:26:35;15.63;;;10.13;;
7583;SDS011;3833;41.764;26.204;2023-07-24T04:29:02;13.60;;;10.83;;
7583;SDS011;3833;41.764;26.204;2023-07-24T04:31:28;15.50;;;10.57;;
7583;SDS011;3833;41.764;26.204;2023-07-24T04:33:55;12.57;;;10.70;;
7583;SDS011;3833;41.764;26.204;2023-07-24T04:36:23;13.10;;;11.77;;
7583;SDS011;3833;41.764;26.204;2023-07-24T04:38:50;16.33;;;11.73;;
7583;SDS011;3833;41.764;26.204;2023-07-24T04:41:17;15.90;;;12.87;;
7583;SDS011;3833;41.764;26.204;2023-07-24T04:43:44;16.27;;;12.67;;
7583;SDS011;3833;41.764;26.204;2023-07-24T04:46:10;16.77;;;12.50;;
7583;SDS011;3833;41.764;26.204;2023-07-24T04:48:36;14.43;;;12.27;;
7583;SDS011;3833;41.764;26.204;2023-07-24T04:51:03;19.60;;;14.47;;
7583;SDS011;3833;41.764;26.204;2023-07-24T04:53:31;19.43;;;14.90;;
7583;SDS011;3833;41.764;26.204;2023-07-24T04:55:58;22.00;;;16.00;;
7583;SDS011;3833;41.764;26.204;2023-07-24T04:58:25;21.47;;;15.03;;
7583;SDS011;3833;41.764;26.204;2023-07-24T05:00:52;22.07;;;15.37;;
7583;SDS011;3833;41.764;26.204;2023-07-24T05:03:19;18.27;;;15.13;;
7583;SDS011;3833;41.764;26.204;2023-07-24T05:05:47;19.27;;;15.73;;
7583;SDS011;3833;41.764;26.204;2023-07-24T05:08:15;21.37;;;15.80;;
7583;SDS011;3833;41.764;26.204;2023-07-24T05:10:43;24.60;;;16.50;;
7583;SDS011;3833;41.764;26.204;2023-07-24T05:13:10;22.37;;;16.33;;
7583;SDS011;3833;41.764;26.204;2023-07-24T05:15:37;21.97;;;16.17;;
7583;SDS011;3833;41.764;26.204;2023-07-24T05:18:04;19.67;;;15.53;;
7583;SDS011;3833;41.764;26.204;2023-07-24T05:20:30;20.73;;;15.50;;
7583;SDS011;3833;41.764;26.204;2023-07-24T05:22:57;21.07;;;15.73;;
7583;SDS011;3833;41.764;26.204;2023-07-24T05:25:24;23.90;;;16.47;;
7583;SDS011;3833;41.764;26.204;2023-07-24T05:27:52;19.93;;;15.77;;
7583;SDS011;3833;41.764;26.204;2023-07-24T05:30:19;23.23;;;16.57;;
7583;SDS011;3833;41.764;26.204;2023-07-24T05:32:46;20.73;;;15.40;;
7583;SDS011;3833;41.764;26.204;2023-07-24T05:35:13;20.23;;;15.97;;
7583;SDS011;3833;41.764;26.204;2023-07-24T05:37:40;20.67;;;16.33;;
7583;SDS011;3833;41.764;26.204;2023-07-24T05:40:07;21.47;;;15.40;;
7583;SDS011;3833;41.764;26.204;2023-07-24T05:42:34;19.63;;;15.33;;
7583;SDS011;3833;41.764;26.204;2023-07-24T05:45:09;21.00;;;16.83;;
7583;SDS011;3833;41.764;26.204;2023-07-24T05:47:37;20.90;;;16.80;;
7583;SDS011;3833;41.764;26.204;2023-07-24T05:50:04;21.43;;;16.07;;
7583;SDS011;3833;41.764;26.204;2023-07-24T05:52:31;20.83;;;16.20;;
7583;SDS011;3833;41.764;26.204;2023-07-24T05:54:58;19.83;;;15.93;;
7583;SDS011;3833;41.764;26.204;2023-07-24T05:57:25;23.07;;;16.77;;
7583;SDS011;3833;41.764;26.204;2023-07-24T05:59:52;23.57;;;16.63;;
7583;SDS011;3833;41.764;26.204;2023-07-24T06:02:21;20.13;;;15.03;;
7583;SDS011;3833;41.764;26.204;2023-07-24T06:04:48;23.63;;;16.43;;
7583;SDS011;3833;41.764;26.204;2023-07-24T06:07:15;21.63;;;16.70;;
7583;SDS011;3833;41.764;26.204;2023-07-24T06:09:42;21.97;;;16.07;;
7583;SDS011;3833;41.764;26.204;2023-07-24T06:12:08;22.07;;;16.53;;
7583;SDS011;3833;41.764;26.204;2023-07-24T06:14:35;22.33;;;16.13;;
7583;SDS011;3833;41.764;26.204;2023-07-24T06:17:02;21.43;;;16.33;;
7583;SDS011;3833;41.764;26.204;2023-07-24T06:19:31;20.70;;;16.90;;
7583;SDS011;3833;41.764;26.204;2023-07-24T06:21:58;22.93;;;15.73;;
7583;SDS011;3833;41.764;26.204;2023-07-24T06:24:25;25.37;;;17.53;;
7583;SDS011;3833;41.764;26.204;2023-07-24T06:26:52;24.00;;;16.70;;
7583;SDS011;3833;41.764;26.204;2023-07-24T06:29:19;25.37;;;15.87;;
7583;SDS011;3833;41.764;26.204;2023-07-24T06:31:47;23.97;;;16.00;;
7583;SDS011;3833;41.764;26.204;2023-07-24T06:34:15;20.37;;;16.50;;
7583;SDS011;3833;41.764;26.204;2023-07-24T06:36:43;18.57;;;14.70;;
7583;SDS011;3833;41.764;26.204;2023-07-24T06:39:10;22.77;;;14.67;;
7583;SDS011;3833;41.764;26.204;2023-07-24T06:41:37;24.67;;;15.93;;
7583;SDS011;3833;41.764;26.204;2023-07-24T06:44:04;20.77;;;14.67;;
7583;SDS011;3833;41.764;26.204;2023-07-24T06:46:30;19.87;;;14.00;;
7583;SDS011;3833;41.764;26.204;2023-07-24T06:48:57;16.73;;;13.43;;
7583;SDS011;3833;41.764;26.204;2023-07-24T06:51:24;19.30;;;14.30;;
7583;SDS011;3833;41.764;26.204;2023-07-24T06:53:55;20.73;;;13.27;;
7583;SDS011;3833;41.764;26.204;2023-07-24T06:56:22;18.30;;;14.13;;
7583;SDS011;3833;41.764;26.204;2023-07-24T06:58:49;19.20;;;13.97;;
7583;SDS011;3833;41.764;26.204;2023-07-24T07:01:15;17.33;;;13.40;;
7583;SDS011;3833;41.764;26.204;2023-07-24T07:03:43;20.67;;;13.60;;
7583;SDS011;3833;41.764;26.204;2023-07-24T07:06:09;17.57;;;14.33;;
7583;SDS011;3833;41.764;26.204;2023-07-24T07:08:37;17.43;;;13.93;;
7583;SDS011;3833;41.764;26.204;2023-07-24T07:11:05;17.07;;;13.37;;
7583;SDS011;3833;41.764;26.204;2023-07-24T07:13:32;19.03;;;13.83;;
7583;SDS011;3833;41.764;26.204;2023-07-24T07:15:59;19.10;;;15.23;;
7583;SDS011;3833;41.764;26.204;2023-07-24T07:18:26;18.67;;;14.10;;
7583;SDS011;3833;41.764;26.204;2023-07-24T07:20:53;17.67;;;13.20;;
7583;SDS011;3833;41.764;26.204;2023-07-24T07:23:20;29.73;;;21.30;;
7583;SDS011;3833;41.764;26.204;2023-07-24T07:25:47;21.50;;;16.87;;
7583;SDS011;3833;41.764;26.204;2023-07-24T07:28:16;45.23;;;30.60;;
7583;SDS011;3833;41.764;26.204;2023-07-24T07:30:44;22.50;;;17.03;;
7583;SDS011;3833;41.764;26.204;2023-07-24T07:33:11;17.00;;;12.90;;
7583;SDS011;3833;41.764;26.204;2023-07-24T07:35:37;15.20;;;12.00;;
7583;SDS011;3833;41.764;26.204;2023-07-24T07:38:04;17.13;;;12.63;;
7583;SDS011;3833;41.764;26.204;2023-07-24T07:40:31;17.63;;;13.07;;
7583;SDS011;3833;41.764;26.204;2023-07-24T07:42:58;16.33;;;11.77;;
7583;SDS011;3833;41.764;26.204;2023-07-24T07:45:26;15.17;;;11.67;;
7583;SDS011;3833;41.764;26.204;2023-07-24T07:47:53;16.37;;;11.23;;
7583;SDS011;3833;41.764;26.204;2023-07-24T07:50:20;12.00;;;10.23;;
7583;SDS011;3833;41.764;26.204;2023-07-24T07:52:49;14.27;;;9.87;;
7583;SDS011;3833;41.764;26.204;2023-07-24T07:55:16;12.33;;;9.67;;
7583;SDS011;3833;41.764;26.204;2023-07-24T07:57:44;10.27;;;9.20;;
7583;SDS011;3833;41.764;26.204;2023-07-24T08:00:11;14.67;;;9.43;;
7583;SDS011;3833;41.764;26.204;2023-07-24T08:02:40;10.60;;;8.83;;
7583;SDS011;3833;41.764;26.204;2023-07-24T08:05:07;11.37;;;8.90;;
7583;SDS011;3833;41.764;26.204;2023-07-24T08:07:35;9.47;;;8.00;;
7583;SDS011;3833;41.764;26.204;2023-07-24T08:10:02;8.67;;;7.23;;
7583;SDS011;3833;41.764;26.204;2023-07-24T08:12:29;8.67;;;6.57;;
7583;SDS011;3833;41.764;26.204;2023-07-24T08:14:56;7.97;;;7.17;;
7583;SDS011;3833;41.764;26.204;2023-07-24T08:17:23;8.37;;;6.67;;
7583;SDS011;3833;41.764;26.204;2023-07-24T08:19:51;7.47;;;6.73;;
7583;SDS011;3833;41.764;26.204;2023-07-24T08:22:18;19.97;;;6.97;;
7583;SDS011;3833;41.764;26.204;2023-07-24T08:24:47;7.77;;;6.33;;
7583;SDS011;3833;41.764;26.204;2023-07-24T08:27:16;7.40;;;6.67;;
7583;SDS011;3833;41.764;26.204;2023-07-24T08:29:43;9.97;;;6.80;;
7583;SDS011;3833;41.764;26.204;2023-07-24T08:32:10;9.73;;;6.87;;
7583;SDS011;3833;41.764;26.204;2023-07-24T08:34:36;8.00;;;7.20;;
7583;SDS011;3833;41.764;26.204;2023-07-24T08:37:05;8.27;;;7.20;;
7583;SDS011;3833;41.764;26.204;2023-07-24T08:39:32;7.40;;;6.57;;
7583;SDS011;3833;41.764;26.204;2023-07-24T08:41:59;7.60;;;6.70;;
7583;SDS011;3833;41.764;26.204;2023-07-24T08:44:26;8.27;;;6.60;;
7583;SDS011;3833;41.764;26.204;2023-07-24T08:46:56;8.27;;;6.53;;
7583;SDS011;3833;41.764;26.204;2023-07-24T08:49:23;8.27;;;6.57;;
7583;SDS011;3833;41.764;26.204;2023-07-24T08:51:51;7.57;;;6.10;;
7583;SDS011;3833;41.764;26.204;2023-07-24T08:54:19;6.87;;;5.80;;
7583;SDS011;3833;41.764;26.204;2023-07-24T08:56:46;8.13;;;5.70;;
7583;SDS011;3833;41.764;26.204;2023-07-24T08:59:15;8.17;;;6.43;;
7583;SDS011;3833;41.764;26.204;2023-07-24T09:01:42;11.43;;;8.27;;
7583;SDS011;3833;41.764;26.204;2023-07-24T09:04:09;6.80;;;5.70;;
7583;SDS011;3833;41.764;26.204;2023-07-24T09:06:36;6.27;;;5.67;;
7583;SDS011;3833;41.764;26.204;2023-07-24T09:09:11;6.23;;;5.60;;
7583;SDS011;3833;41.764;26.204;2023-07-24T09:11:46;6.07;;;5.47;;
7583;SDS011;3833;41.764;26.204;2023-07-24T09:14:21;5.97;;;5.33;;
7583;SDS011;3833;41.764;26.204;2023-07-24T09:16:49;5.67;;;5.17;;
7583;SDS011;3833;41.764;26.204;2023-07-24T09:19:18;6.80;;;5.53;;
7583;SDS011;3833;41.764;26.204;2023-07-24T09:21:45;7.50;;;5.53;;
7583;SDS011;3833;41.764;26.204;2023-07-24T09:24:12;5.60;;;5.10;;
7583;SDS011;3833;41.764;26.204;2023-07-24T09:26:48;9.07;;;5.63;;
7583;SDS011;3833;41.764;26.204;2023-07-24T09:29:16;5.33;;;4.87;;
7583;SDS011;3833;41.764;26.204;2023-07-24T09:31:43;6.47;;;5.67;;
7583;SDS011;3833;41.764;26.204;2023-07-24T09:34:14;7.20;;;5.63;;
7583;SDS011;3833;41.764;26.204;2023-07-24T09:36:42;5.97;;;5.40;;
7583;SDS011;3833;41.764;26.204;2023-07-24T09:39:09;5.53;;;5.03;;
7583;SDS011;3833;41.764;26.204;2023-07-24T09:41:37;5.30;;;4.80;;
7583;SDS011;3833;41.764;26.204;2023-07-24T09:44:06;5.63;;;4.97;;
7583;SDS011;3833;41.764;26.204;2023-07-24T09:46:33;4.97;;;4.47;;
7583;SDS011;3833;41.764;26.204;2023-07-24T09:49:00;5.27;;;4.77;;
7583;SDS011;3833;41.764;26.204;2023-07-24T09:51:28;5.43;;;4.93;;
7583;SDS011;3833;41.764;26.204;2023-07-24T09:53:58;7.67;;;4.50;;
7583;SDS011;3833;41.764;26.204;2023-07-24T09:56:28;5.53;;;4.80;;
7583;SDS011;3833;41.764;26.204;2023-07-24T09:58:56;5.97;;;5.40;;
7583;SDS011;3833;41.764;26.204;2023-07-24T10:01:26;5.83;;;5.23;;
7583;SDS011;3833;41.764;26.204;2023-07-24T10:03:53;5.33;;;4.83;;
7583;SDS011;3833;41.764;26.204;2023-07-24T10:06:21;5.23;;;4.63;;
7583;SDS011;3833;41.764;26.204;2023-07-24T10:08:49;4.70;;;4.30;;
7583;SDS011;3833;41.764;26.204;2023-07-24T10:11:16;4.37;;;3.97;;
7583;SDS011;3833;41.764;26.204;2023-07-24T10:13:43;5.37;;;4.37;;
7583;SDS011;3833;41.764;26.204;2023-07-24T10:16:11;7.27;;;4.20;;
7583;SDS011;3833;41.764;26.204;2023-07-24T10:18:42;4.63;;;4.23;;
7583;SDS011;3833;41.764;26.204;2023-07-24T10:21:10;4.50;;;4.10;;
7583;SDS011;3833;41.764;26.204;2023-07-24T10:23:42;5.20;;;4.70;;
7583;SDS011;3833;41.764;26.204;2023-07-24T10:26:12;4.30;;;4.00;;
7583;SDS011;3833;41.764;26.204;2023-07-24T10:28:41;4.80;;;4.40;;
7583;SDS011;3833;41.764;26.204;2023-07-24T10:31:18;4.37;;;3.97;;
7583;SDS011;3833;41.764;26.204;2023-07-24T10:33:47;4.73;;;4.33;;
7583;SDS011;3833;41.764;26.204;2023-07-24T10:36:19;6.73;;;4.20;;
7583;SDS011;3833;41.764;26.204;2023-07-24T10:38:51;7.10;;;4.20;;
7583;SDS011;3833;41.764;26.204;2023-07-24T10:41:19;5.05;;;4.13;;
7583;SDS011;3833;41.764;26.204;2023-07-24T10:43:47;4.43;;;3.57;;
7583;SDS011;3833;41.764;26.204;2023-07-24T10:46:17;4.00;;;3.70;;
7583;SDS011;3833;41.764;26.204;2023-07-24T10:48:46;4.53;;;4.13;;
7583;SDS011;3833;41.764;26.204;2023-07-24T10:51:15;6.45;;;4.38;;
7583;SDS011;3833;41.764;26.204;2023-07-24T10:53:44;7.18;;;4.15;;
7583;SDS011;3833;41.764;26.204;2023-07-24T10:56:12;4.45;;;3.83;;
7583;SDS011;3833;41.764;26.204;2023-07-24T10:58:39;4.87;;;4.40;;
7583;SDS011;3833;41.764;26.204;2023-07-24T11:01:07;4.22;;;3.83;;
7583;SDS011;3833;41.764;26.204;2023-07-24T11:03:36;7.20;;;6.10;;
7583;SDS011;3833;41.764;26.204;2023-07-24T11:06:04;4.60;;;4.00;;
7583;SDS011;3833;41.764;26.204;2023-07-24T11:08:31;4.60;;;4.20;;
7583;SDS011;3833;41.764;26.204;2023-07-24T11:10:59;4.63;;;4.22;;
7583;SDS011;3833;41.764;26.204;2023-07-24T11:13:28;4.13;;;3.80;;
7583;SDS011;3833;41.764;26.204;2023-07-24T11:15:55;4.70;;;4.30;;
7583;SDS011;3833;41.764;26.204;2023-07-24T11:18:22;4.75;;;4.00;;
7583;SDS011;3833;41.764;26.204;2023-07-24T11:20:52;4.43;;;4.00;;
7583;SDS011;3833;41.764;26.204;2023-07-24T11:23:21;7.72;;;4.38;;
7583;SDS011;3833;41.764;26.204;2023-07-24T11:25:49;4.95;;;4.07;;
7583;SDS011;3833;41.764;26.204;2023-07-24T11:28:17;5.72;;;4.63;;
7583;SDS011;3833;41.764;26.204;2023-07-24T11:30:44;6.85;;;4.85;;
7583;SDS011;3833;41.764;26.204;2023-07-24T11:33:12;4.93;;;4.50;;
7583;SDS011;3833;41.764;26.204;2023-07-24T11:35:41;4.50;;;4.13;;
7583;SDS011;3833;41.764;26.204;2023-07-24T11:38:09;5.07;;;4.57;;
7583;SDS011;3833;41.764;26.204;2023-07-24T11:40:38;5.78;;;5.25;;
7583;SDS011;3833;41.764;26.204;2023-07-24T11:43:14;5.68;;;4.25;;
7583;SDS011;3833;41.764;26.204;2023-07-24T11:45:42;5.63;;;4.60;;
7583;SDS011;3833;41.764;26.204;2023-07-24T11:48:10;4.68;;;4.28;;
7583;SDS011;3833;41.764;26.204;2023-07-24T11:50:43;5.00;;;4.25;;
7583;SDS011;3833;41.764;26.204;2023-07-24T11:53:21;4.53;;;4.13;;
7583;SDS011;3833;41.764;26.204;2023-07-24T11:55:54;3.85;;;3.55;;
7583;SDS011;3833;41.764;26.204;2023-07-24T11:58:22;5.32;;;4.18;;
7583;SDS011;3833;41.764;26.204;2023-07-24T12:00:52;4.38;;;3.97;;
7583;SDS011;3833;41.764;26.204;2023-07-24T12:03:19;4.85;;;4.45;;
7583;SDS011;3833;41.764;26.204;2023-07-24T12:05:47;4.80;;;4.00;;
7583;SDS011;3833;41.764;26.204;2023-07-24T12:08:14;5.88;;;4.25;;
7583;SDS011;3833;41.764;26.204;2023-07-24T12:10:42;6.45;;;3.97;;
7583;SDS011;3833;41.764;26.204;2023-07-24T12:13:12;4.45;;;4.05;;
7583;SDS011;3833;41.764;26.204;2023-07-24T12:15:39;5.07;;;4.60;;
7583;SDS011;3833;41.764;26.204;2023-07-24T12:18:06;7.68;;;4.60;;
7583;SDS011;3833;41.764;26.204;2023-07-24T12:20:33;5.85;;;4.65;;
7583;SDS011;3833;41.764;26.204;2023-07-24T12:23:01;5.07;;;4.57;;
7583;SDS011;3833;41.764;26.204;2023-07-24T12:25:28;4.77;;;4.37;;
7583;SDS011;3833;41.764;26.204;2023-07-24T12:27:55;5.47;;;4.47;;
7583;SDS011;3833;41.764;26.204;2023-07-24T12:30:23;4.30;;;3.85;;
7583;SDS011;3833;41.764;26.204;2023-07-24T12:32:50;6.15;;;4.07;;
7583;SDS011;3833;41.764;26.204;2023-07-24T12:35:17;4.80;;;4.38;;
7583;SDS011;3833;41.764;26.204;2023-07-24T12:37:44;5.20;;;4.70;;
7583;SDS011;3833;41.764;26.204;2023-07-24T12:40:12;6.38;;;4.60;;
7583;SDS011;3833;41.764;26.204;2023-07-24T12:42:39;4.82;;;4.38;;
7583;SDS011;3833;41.764;26.204;2023-07-24T12:45:06;5.72;;;4.30;;
7583;SDS011;3833;41.764;26.204;2023-07-24T12:47:35;5.53;;;4.88;;
7583;SDS011;3833;41.764;26.204;2023-07-24T12:50:02;6.50;;;5.03;;
7583;SDS011;3833;41.764;26.204;2023-07-24T12:52:29;6.93;;;5.00;;
7583;SDS011;3833;41.764;26.204;2023-07-24T12:54:56;5.80;;;5.30;;
7583;SDS011;3833;41.764;26.204;2023-07-24T12:57:22;6.20;;;5.60;;
7583;SDS011;3833;41.764;26.204;2023-07-24T12:59:51;6.32;;;5.50;;
7583;SDS011;3833;41.764;26.204;2023-07-24T13:02:18;5.72;;;5.07;;
7583;SDS011;3833;41.764;26.204;2023-07-24T13:04:46;6.07;;;5.13;;
7583;SDS011;3833;41.764;26.204;2023-07-24T13:07:13;6.72;;;5.20;;
7583;SDS011;3833;41.764;26.204;2023-07-24T13:09:40;6.25;;;5.65;;
7583;SDS011;3833;41.764;26.204;2023-07-24T13:12:07;7.05;;;5.68;;
7583;SDS011;3833;41.764;26.204;2023-07-24T13:14:35;9.57;;;6.82;;
7583;SDS011;3833;41.764;26.204;2023-07-24T13:17:02;7.05;;;6.35;;
7583;SDS011;3833;41.764;26.204;2023-07-24T13:19:30;6.88;;;5.60;;
7583;SDS011;3833;41.764;26.204;2023-07-24T13:21:58;9.73;;;6.82;;
7583;SDS011;3833;41.764;26.204;2023-07-24T13:24:25;7.97;;;6.95;;
7583;SDS011;3833;41.764;26.204;2023-07-24T13:26:52;8.63;;;7.57;;
7583;SDS011;3833;41.764;26.204;2023-07-24T13:29:19;8.50;;;7.10;;
7583;SDS011;3833;41.764;26.204;2023-07-24T13:31:46;9.73;;;8.68;;
7583;SDS011;3833;41.764;26.204;2023-07-24T13:34:13;10.48;;;8.15;;
7583;SDS011;3833;41.764;26.204;2023-07-24T13:36:43;11.05;;;9.73;;
7583;SDS011;3833;41.764;26.204;2023-07-24T13:39:12;11.52;;;9.73;;
7583;SDS011;3833;41.764;26.204;2023-07-24T13:41:39;11.00;;;8.95;;
7583;SDS011;3833;41.764;26.204;2023-07-24T13:44:06;12.23;;;10.48;;
7583;SDS011;3833;41.764;26.204;2023-07-24T13:46:32;14.85;;;12.13;;
7583;SDS011;3833;41.764;26.204;2023-07-24T13:48:59;13.93;;;10.80;;
7583;SDS011;3833;41.764;26.204;2023-07-24T13:51:26;12.40;;;10.87;;
7583;SDS011;3833;41.764;26.204;2023-07-24T13:53:53;13.65;;;11.00;;
7583;SDS011;3833;41.764;26.204;2023-07-24T13:56:21;15.13;;;11.52;;
7583;SDS011;3833;41.764;26.204;2023-07-24T13:58:48;15.10;;;12.60;;
7583;SDS011;3833;41.764;26.204;2023-07-24T14:01:15;15.82;;;14.02;;
7583;SDS011;3833;41.764;26.204;2023-07-24T14:03:42;15.90;;;13.10;;
7583;SDS011;3833;41.764;26.204;2023-07-24T14:06:09;17.98;;;16.13;;
7583;SDS011;3833;41.764;26.204;2023-07-24T14:08:36;16.08;;;13.02;;
7583;SDS011;3833;41.764;26.204;2023-07-24T14:11:03;17.75;;;15.02;;
7583;SDS011;3833;41.764;26.204;2023-07-24T14:13:31;15.20;;;13.35;;
7583;SDS011;3833;41.764;26.204;2023-07-24T14:15:58;16.95;;;13.70;;
7583;SDS011;3833;41.764;26.204;2023-07-24T14:18:25;18.67;;;13.70;;
7583;SDS011;3833;41.764;26.204;2023-07-24T14:20:52;17.77;;;13.77;;
7583;SDS011;3833;41.764;26.204;2023-07-24T14:23:20;16.73;;;13.38;;
7583;SDS011;3833;41.764;26.204;2023-07-24T14:25:47;15.32;;;13.05;;
7583;SDS011;3833;41.764;26.204;2023-07-24T14:28:14;14.18;;;12.60;;
7583;SDS011;3833;41.764;26.204;2023-07-24T14:30:44;11.20;;;10.05;;
7583;SDS011;3833;41.764;26.204;2023-07-24T14:33:11;12.43;;;10.40;;
7583;SDS011;3833;41.764;26.204;2023-07-24T14:35:38;14.45;;;11.93;;
7583;SDS011;3833;41.764;26.204;2023-07-24T14:38:05;15.20;;;12.93;;
7583;SDS011;3833;41.764;26.204;2023-07-24T14:40:32;17.60;;;13.20;;
7583;SDS011;3833;41.764;26.204;2023-07-24T14:42:59;14.25;;;12.25;;
7583;SDS011;3833;41.764;26.204;2023-07-24T14:45:26;14.25;;;11.75;;
7583;SDS011;3833;41.764;26.204;2023-07-24T14:47:54;14.55;;;12.32;;
7583;SDS011;3833;41.764;26.204;2023-07-24T14:50:21;14.60;;;12.80;;
7583;SDS011;3833;41.764;26.204;2023-07-24T14:52:48;13.35;;;11.57;;
7583;SDS011;3833;41.764;26.204;2023-07-24T14:55:15;11.70;;;10.45;;